sensor_id;sensor_type;location;lat;lon;timestamp;temperature;humidity
31038;DHT22;17702;47.590;7.666;2023-05-07T00:01:41;15.10;99.90
31038;DHT22;17702;47.590;7.666;2023-05-07T00:04:07;15.20;99.90
31038;DHT22;17702;47.590;7.666;2023-05-07T00:06:32;15.10;99.90
31038;DHT22;17702;47.590;7.666;2023-05-07T00:08:58;15.10;99.90
31038;DHT22;17702;47.590;7.666;2023-05-07T00:11:24;15.10;99.90
31038;DHT22;17702;47.590;7.666;2023-05-07T00:13:51;15.10;99.90
31038;DHT22;17702;47.590;7.666;2023-05-07T00:16:16;15.10;99.90
31038;DHT22;17702;47.590;7.666;2023-05-07T00:18:42;15.10;99.90
31038;DHT22;17702;47.590;7.666;2023-05-07T00:21:07;15.00;99.90
31038;DHT22;17702;47.590;7.666;2023-05-07T00:23:33;15.00;99.90
31038;DHT22;17702;47.590;7.666;2023-05-07T00:25:58;14.90;99.90
31038;DHT22;17702;47.590;7.666;2023-05-07T00:28:23;14.90;99.90
31038;DHT22;17702;47.590;7.666;2023-05-07T00:30:49;14.90;99.90
31038;DHT22;17702;47.590;7.666;2023-05-07T00:33:15;14.90;99.90
31038;DHT22;17702;47.590;7.666;2023-05-07T00:35:41;14.80;99.90
31038;DHT22;17702;47.590;7.666;2023-05-07T00:38:07;14.80;99.90
31038;DHT22;17702;47.590;7.666;2023-05-07T00:40:32;14.70;99.90
31038;DHT22;17702;47.590;7.666;2023-05-07T00:42:58;14.70;99.90
31038;DHT22;17702;47.590;7.666;2023-05-07T00:45:26;14.70;99.90
31038;DHT22;17702;47.590;7.666;2023-05-07T00:47:55;14.70;99.90
31038;DHT22;17702;47.590;7.666;2023-05-07T00:50:21;14.70;99.90
31038;DHT22;17702;47.590;7.666;2023-05-07T00:52:47;14.70;99.90
31038;DHT22;17702;47.590;7.666;2023-05-07T00:55:13;14.70;99.90
31038;DHT22;17702;47.590;7.666;2023-05-07T00:57:40;14.70;99.90
31038;DHT22;17702;47.590;7.666;2023-05-07T01:00:06;14.70;99.90
31038;DHT22;17702;47.590;7.666;2023-05-07T01:02:34;14.70;99.90
31038;DHT22;17702;47.590;7.666;2023-05-07T01:05:00;14.60;99.90
31038;DHT22;17702;47.590;7.666;2023-05-07T01:07:26;14.60;99.90
31038;DHT22;17702;47.590;7.666;2023-05-07T01:09:51;14.60;99.90
31038;DHT22;17702;47.590;7.666;2023-05-07T01:12:17;14.50;99.90
31038;DHT22;17702;47.590;7.666;2023-05-07T01:14:43;14.50;99.90
31038;DHT22;17702;47.590;7.666;2023-05-07T01:17:08;14.40;99.90
31038;DHT22;17702;47.590;7.666;2023-05-07T01:19:34;14.50;99.90
31038;DHT22;17702;47.590;7.666;2023-05-07T01:22:04;14.50;99.90
31038;DHT22;17702;47.590;7.666;2023-05-07T01:24:32;14.40;99.90
31038;DHT22;17702;47.590;7.666;2023-05-07T01:26:58;14.40;99.90
31038;DHT22;17702;47.590;7.666;2023-05-07T01:29:23;14.30;99.90
31038;DHT22;17702;47.590;7.666;2023-05-07T01:31:49;14.30;99.90
31038;DHT22;17702;47.590;7.666;2023-05-07T01:34:15;14.20;99.90
31038;DHT22;17702;47.590;7.666;2023-05-07T01:36:42;14.20;99.90
31038;DHT22;17702;47.590;7.666;2023-05-07T01:39:08;14.20;99.90
31038;DHT22;17702;47.590;7.666;2023-05-07T01:41:34;14.10;99.90
31038;DHT22;17702;47.590;7.666;2023-05-07T01:44:00;14.10;99.90
31038;DHT22;17702;47.590;7.666;2023-05-07T01:46:26;14.10;99.90
31038;DHT22;17702;47.590;7.666;2023-05-07T01:48:52;14.10;99.90
31038;DHT22;17702;47.590;7.666;2023-05-07T01:51:18;14.00;99.90
31038;DHT22;17702;47.590;7.666;2023-05-07T01:53:45;14.00;99.90
31038;DHT22;17702;47.590;7.666;2023-05-07T01:56:13;13.90;99.90
31038;DHT22;17702;47.590;7.666;2023-05-07T01:58:38;13.90;99.90
31038;DHT22;17702;47.590;7.666;2023-05-07T02:01:04;14.00;99.90
31038;DHT22;17702;47.590;7.666;2023-05-07T02:03:29;14.00;99.90
31038;DHT22;17702;47.590;7.666;2023-05-07T02:05:55;13.90;99.90
31038;DHT22;17702;47.590;7.666;2023-05-07T02:08:21;13.90;99.90
31038;DHT22;17702;47.590;7.666;2023-05-07T02:10:46;13.80;99.90
31038;DHT22;17702;47.590;7.666;2023-05-07T02:13:12;13.80;99.90
31038;DHT22;17702;47.590;7.666;2023-05-07T02:15:37;13.70;99.90
31038;DHT22;17702;47.590;7.666;2023-05-07T02:18:04;13.70;99.90
31038;DHT22;17702;47.590;7.666;2023-05-07T02:20:29;13.70;99.90
31038;DHT22;17702;47.590;7.666;2023-05-07T02:22:55;13.70;99.90
31038;DHT22;17702;47.590;7.666;2023-05-07T02:25:20;13.60;99.90
31038;DHT22;17702;47.590;7.666;2023-05-07T02:27:46;13.60;99.90
31038;DHT22;17702;47.590;7.666;2023-05-07T02:30:11;13.60;99.90
31038;DHT22;17702;47.590;7.666;2023-05-07T02:32:37;13.60;99.90
31038;DHT22;17702;47.590;7.666;2023-05-07T02:35:02;13.60;99.90
31038;DHT22;17702;47.590;7.666;2023-05-07T02:37:28;13.70;99.90
31038;DHT22;17702;47.590;7.666;2023-05-07T02:39:54;13.80;99.90
31038;DHT22;17702;47.590;7.666;2023-05-07T02:42:19;13.80;99.90
31038;DHT22;17702;47.590;7.666;2023-05-07T02:44:45;13.80;99.90
31038;DHT22;17702;47.590;7.666;2023-05-07T02:47:10;13.80;99.90
31038;DHT22;17702;47.590;7.666;2023-05-07T02:49:38;13.80;99.90
31038;DHT22;17702;47.590;7.666;2023-05-07T02:52:03;13.80;99.90
31038;DHT22;17702;47.590;7.666;2023-05-07T02:54:29;13.70;99.90
31038;DHT22;17702;47.590;7.666;2023-05-07T02:56:54;13.70;99.90
31038;DHT22;17702;47.590;7.666;2023-05-07T02:59:20;13.60;99.90
31038;DHT22;17702;47.590;7.666;2023-05-07T03:01:46;13.70;99.90
31038;DHT22;17702;47.590;7.666;2023-05-07T03:04:11;13.60;99.90
31038;DHT22;17702;47.590;7.666;2023-05-07T03:06:37;13.60;99.90
31038;DHT22;17702;47.590;7.666;2023-05-07T03:09:02;13.60;99.90
31038;DHT22;17702;47.590;7.666;2023-05-07T03:11:28;13.70;99.90
31038;DHT22;17702;47.590;7.666;2023-05-07T03:13:55;13.80;99.90
31038;DHT22;17702;47.590;7.666;2023-05-07T03:16:21;13.80;99.90
31038;DHT22;17702;47.590;7.666;2023-05-07T03:18:46;13.80;99.90
31038;DHT22;17702;47.590;7.666;2023-05-07T03:21:12;13.80;99.90
31038;DHT22;17702;47.590;7.666;2023-05-07T03:23:37;13.70;99.90
31038;DHT22;17702;47.590;7.666;2023-05-07T03:26:03;13.60;99.90
31038;DHT22;17702;47.590;7.666;2023-05-07T03:28:28;13.70;99.90
31038;DHT22;17702;47.590;7.666;2023-05-07T03:30:54;13.80;99.90
31038;DHT22;17702;47.590;7.666;2023-05-07T03:33:19;13.80;99.90
31038;DHT22;17702;47.590;7.666;2023-05-07T03:35:45;13.70;99.90
31038;DHT22;17702;47.590;7.666;2023-05-07T03:38:11;13.70;99.90
31038;DHT22;17702;47.590;7.666;2023-05-07T03:40:36;13.70;99.90
31038;DHT22;17702;47.590;7.666;2023-05-07T03:43:02;13.70;99.90
31038;DHT22;17702;47.590;7.666;2023-05-07T03:45:27;13.70;99.90
31038;DHT22;17702;47.590;7.666;2023-05-07T03:47:53;13.70;99.90
31038;DHT22;17702;47.590;7.666;2023-05-07T03:50:19;13.70;99.90
31038;DHT22;17702;47.590;7.666;2023-05-07T03:52:44;13.70;99.90
31038;DHT22;17702;47.590;7.666;2023-05-07T03:55:10;13.70;99.90
31038;DHT22;17702;47.590;7.666;2023-05-07T03:57:35;13.70;99.90
31038;DHT22;17702;47.590;7.666;2023-05-07T04:00:01;13.70;99.90
31038;DHT22;17702;47.590;7.666;2023-05-07T04:02:27;13.60;99.90
31038;DHT22;17702;47.590;7.666;2023-05-07T04:04:52;13.60;99.90
31038;DHT22;17702;47.590;7.666;2023-05-07T04:07:18;13.60;99.90
31038;DHT22;17702;47.590;7.666;2023-05-07T04:09:43;13.60;99.90
31038;DHT22;17702;47.590;7.666;2023-05-07T04:12:09;13.60;99.90
31038;DHT22;17702;47.590;7.666;2023-05-07T04:14:34;13.60;99.90
31038;DHT22;17702;47.590;7.666;2023-05-07T04:17:00;13.60;99.90
31038;DHT22;17702;47.590;7.666;2023-05-07T04:19:25;13.60;99.90
31038;DHT22;17702;47.590;7.666;2023-05-07T04:21:51;13.60;99.90
31038;DHT22;17702;47.590;7.666;2023-05-07T04:24:16;13.50;99.90
31038;DHT22;17702;47.590;7.666;2023-05-07T04:26:42;13.60;99.90
31038;DHT22;17702;47.590;7.666;2023-05-07T04:29:07;13.70;99.90
31038;DHT22;17702;47.590;7.666;2023-05-07T04:31:33;13.70;99.90
31038;DHT22;17702;47.590;7.666;2023-05-07T04:33:58;13.80;99.90
31038;DHT22;17702;47.590;7.666;2023-05-07T04:36:24;13.90;99.90
31038;DHT22;17702;47.590;7.666;2023-05-07T04:38:53;14.00;99.90
31038;DHT22;17702;47.590;7.666;2023-05-07T04:41:18;14.10;99.90
31038;DHT22;17702;47.590;7.666;2023-05-07T04:43:44;14.20;99.90
31038;DHT22;17702;47.590;7.666;2023-05-07T04:46:09;14.20;99.90
31038;DHT22;17702;47.590;7.666;2023-05-07T04:48:35;14.30;99.90
31038;DHT22;17702;47.590;7.666;2023-05-07T04:51:00;14.40;99.90
31038;DHT22;17702;47.590;7.666;2023-05-07T04:53:26;14.40;99.90
31038;DHT22;17702;47.590;7.666;2023-05-07T04:55:55;14.30;99.90
31038;DHT22;17702;47.590;7.666;2023-05-07T04:58:21;14.30;99.90
31038;DHT22;17702;47.590;7.666;2023-05-07T05:00:46;14.40;99.90
31038;DHT22;17702;47.590;7.666;2023-05-07T05:03:12;14.50;99.90
31038;DHT22;17702;47.590;7.666;2023-05-07T05:05:37;14.70;99.90
31038;DHT22;17702;47.590;7.666;2023-05-07T05:08:03;14.70;99.90
31038;DHT22;17702;47.590;7.666;2023-05-07T05:10:28;14.70;99.90
31038;DHT22;17702;47.590;7.666;2023-05-07T05:12:54;14.60;99.90
31038;DHT22;17702;47.590;7.666;2023-05-07T05:15:19;14.70;99.90
31038;DHT22;17702;47.590;7.666;2023-05-07T05:17:45;14.60;99.90
31038;DHT22;17702;47.590;7.666;2023-05-07T05:20:10;14.60;99.90
31038;DHT22;17702;47.590;7.666;2023-05-07T05:22:37;14.60;99.90
31038;DHT22;17702;47.590;7.666;2023-05-07T05:25:02;14.70;99.90
31038;DHT22;17702;47.590;7.666;2023-05-07T05:27:28;14.80;99.90
31038;DHT22;17702;47.590;7.666;2023-05-07T05:29:53;14.80;99.90
31038;DHT22;17702;47.590;7.666;2023-05-07T05:32:19;14.80;99.90
31038;DHT22;17702;47.590;7.666;2023-05-07T05:34:44;14.80;99.90
31038;DHT22;17702;47.590;7.666;2023-05-07T05:37:10;14.90;99.90
31038;DHT22;17702;47.590;7.666;2023-05-07T05:39:35;14.90;99.90
31038;DHT22;17702;47.590;7.666;2023-05-07T05:42:01;15.00;99.90
31038;DHT22;17702;47.590;7.666;2023-05-07T05:44:27;15.10;99.90
31038;DHT22;17702;47.590;7.666;2023-05-07T05:46:52;15.00;99.90
31038;DHT22;17702;47.590;7.666;2023-05-07T05:49:20;15.10;99.90
31038;DHT22;17702;47.590;7.666;2023-05-07T05:51:46;15.20;99.90
31038;DHT22;17702;47.590;7.666;2023-05-07T05:54:11;15.10;99.90
31038;DHT22;17702;47.590;7.666;2023-05-07T05:56:37;15.20;99.90
31038;DHT22;17702;47.590;7.666;2023-05-07T05:59:02;15.20;99.90
31038;DHT22;17702;47.590;7.666;2023-05-07T06:01:28;15.20;99.90
31038;DHT22;17702;47.590;7.666;2023-05-07T06:03:53;15.20;99.90
31038;DHT22;17702;47.590;7.666;2023-05-07T06:06:19;15.20;99.90
31038;DHT22;17702;47.590;7.666;2023-05-07T06:08:44;15.20;99.90
31038;DHT22;17702;47.590;7.666;2023-05-07T06:11:10;15.10;99.90
31038;DHT22;17702;47.590;7.666;2023-05-07T06:13:35;15.20;99.90
31038;DHT22;17702;47.590;7.666;2023-05-07T06:16:01;15.30;99.90
31038;DHT22;17702;47.590;7.666;2023-05-07T06:18:26;15.30;99.90
31038;DHT22;17702;47.590;7.666;2023-05-07T06:20:52;15.40;99.90
31038;DHT22;17702;47.590;7.666;2023-05-07T06:23:18;15.40;99.90
31038;DHT22;17702;47.590;7.666;2023-05-07T06:25:49;15.40;99.90
31038;DHT22;17702;47.590;7.666;2023-05-07T06:28:18;15.50;99.90
31038;DHT22;17702;47.590;7.666;2023-05-07T06:30:43;15.70;99.90
31038;DHT22;17702;47.590;7.666;2023-05-07T06:33:09;15.90;99.90
31038;DHT22;17702;47.590;7.666;2023-05-07T06:35:34;16.10;99.90
31038;DHT22;17702;47.590;7.666;2023-05-07T06:38:00;16.20;99.90
31038;DHT22;17702;47.590;7.666;2023-05-07T06:40:26;16.50;99.90
31038;DHT22;17702;47.590;7.666;2023-05-07T06:42:51;16.60;99.90
31038;DHT22;17702;47.590;7.666;2023-05-07T06:45:17;16.70;99.90
31038;DHT22;17702;47.590;7.666;2023-05-07T06:47:42;16.80;99.90
31038;DHT22;17702;47.590;7.666;2023-05-07T06:50:08;17.00;99.90
31038;DHT22;17702;47.590;7.666;2023-05-07T06:52:35;17.00;99.90
31038;DHT22;17702;47.590;7.666;2023-05-07T06:55:00;17.10;99.90
31038;DHT22;17702;47.590;7.666;2023-05-07T06:57:26;17.20;99.90
31038;DHT22;17702;47.590;7.666;2023-05-07T06:59:51;17.30;99.90
31038;DHT22;17702;47.590;7.666;2023-05-07T07:02:17;17.30;99.90
31038;DHT22;17702;47.590;7.666;2023-05-07T07:04:42;17.40;99.90
31038;DHT22;17702;47.590;7.666;2023-05-07T07:07:08;17.60;99.90
31038;DHT22;17702;47.590;7.666;2023-05-07T07:09:33;17.70;99.90
31038;DHT22;17702;47.590;7.666;2023-05-07T07:11:59;17.90;99.90
31038;DHT22;17702;47.590;7.666;2023-05-07T07:14:25;18.10;99.90
31038;DHT22;17702;47.590;7.666;2023-05-07T07:16:50;18.30;99.90
31038;DHT22;17702;47.590;7.666;2023-05-07T07:19:16;18.40;99.90
31038;DHT22;17702;47.590;7.666;2023-05-07T07:21:41;18.60;99.90
31038;DHT22;17702;47.590;7.666;2023-05-07T07:24:07;18.60;99.90
31038;DHT22;17702;47.590;7.666;2023-05-07T07:26:32;18.60;99.90
31038;DHT22;17702;47.590;7.666;2023-05-07T07:28:58;18.60;99.90
31038;DHT22;17702;47.590;7.666;2023-05-07T07:31:23;18.70;99.90
31038;DHT22;17702;47.590;7.666;2023-05-07T07:33:49;18.90;99.90
31038;DHT22;17702;47.590;7.666;2023-05-07T07:36:15;19.00;99.90
31038;DHT22;17702;47.590;7.666;2023-05-07T07:38:41;19.20;99.90
31038;DHT22;17702;47.590;7.666;2023-05-07T07:41:07;19.40;99.90
31038;DHT22;17702;47.590;7.666;2023-05-07T07:43:33;19.60;99.90
31038;DHT22;17702;47.590;7.666;2023-05-07T07:45:58;19.80;99.90
31038;DHT22;17702;47.590;7.666;2023-05-07T07:48:24;19.90;99.90
31038;DHT22;17702;47.590;7.666;2023-05-07T07:50:50;20.10;99.90
31038;DHT22;17702;47.590;7.666;2023-05-07T07:53:16;20.20;99.90
31038;DHT22;17702;47.590;7.666;2023-05-07T07:55:42;20.30;99.90
31038;DHT22;17702;47.590;7.666;2023-05-07T07:58:07;20.40;99.90
31038;DHT22;17702;47.590;7.666;2023-05-07T08:00:33;20.50;99.90
31038;DHT22;17702;47.590;7.666;2023-05-07T08:02:58;20.50;99.60
31038;DHT22;17702;47.590;7.666;2023-05-07T08:05:24;20.60;99.80
31038;DHT22;17702;47.590;7.666;2023-05-07T08:07:50;20.70;99.40
31038;DHT22;17702;47.590;7.666;2023-05-07T08:10:18;20.80;99.50
31038;DHT22;17702;47.590;7.666;2023-05-07T08:12:47;21.00;98.20
31038;DHT22;17702;47.590;7.666;2023-05-07T08:15:13;21.20;98.10
31038;DHT22;17702;47.590;7.666;2023-05-07T08:17:38;21.20;96.30
31038;DHT22;17702;47.590;7.666;2023-05-07T08:20:04;21.10;94.00
31038;DHT22;17702;47.590;7.666;2023-05-07T08:22:30;20.80;94.60
31038;DHT22;17702;47.590;7.666;2023-05-07T08:24:55;20.70;96.80
31038;DHT22;17702;47.590;7.666;2023-05-07T08:27:21;20.60;97.70
31038;DHT22;17702;47.590;7.666;2023-05-07T08:29:46;20.60;99.10
31038;DHT22;17702;47.590;7.666;2023-05-07T08:32:13;20.70;98.80
31038;DHT22;17702;47.590;7.666;2023-05-07T08:34:38;20.60;98.80
31038;DHT22;17702;47.590;7.666;2023-05-07T08:37:04;20.70;98.80
31038;DHT22;17702;47.590;7.666;2023-05-07T08:39:29;20.80;99.50
31038;DHT22;17702;47.590;7.666;2023-05-07T08:41:55;20.90;97.90
31038;DHT22;17702;47.590;7.666;2023-05-07T08:44:23;21.00;95.50
31038;DHT22;17702;47.590;7.666;2023-05-07T08:46:52;21.00;95.90
31038;DHT22;17702;47.590;7.666;2023-05-07T08:49:19;21.00;95.10
31038;DHT22;17702;47.590;7.666;2023-05-07T08:51:45;21.00;96.60
31038;DHT22;17702;47.590;7.666;2023-05-07T08:54:11;21.10;97.10
31038;DHT22;17702;47.590;7.666;2023-05-07T08:56:37;21.20;97.40
31038;DHT22;17702;47.590;7.666;2023-05-07T08:59:05;21.20;96.70
31038;DHT22;17702;47.590;7.666;2023-05-07T09:01:30;21.00;96.90
31038;DHT22;17702;47.590;7.666;2023-05-07T09:03:57;21.00;96.80
31038;DHT22;17702;47.590;7.666;2023-05-07T09:06:22;20.90;97.20
31038;DHT22;17702;47.590;7.666;2023-05-07T09:08:49;20.90;96.10
31038;DHT22;17702;47.590;7.666;2023-05-07T09:11:15;20.80;96.30
31038;DHT22;17702;47.590;7.666;2023-05-07T09:13:41;20.80;96.80
31038;DHT22;17702;47.590;7.666;2023-05-07T09:16:11;20.90;98.00
31038;DHT22;17702;47.590;7.666;2023-05-07T09:18:43;21.00;96.70
31038;DHT22;17702;47.590;7.666;2023-05-07T09:21:15;21.20;96.70
31038;DHT22;17702;47.590;7.666;2023-05-07T09:23:41;21.40;97.20
31038;DHT22;17702;47.590;7.666;2023-05-07T09:26:07;21.60;95.50
31038;DHT22;17702;47.590;7.666;2023-05-07T09:28:40;21.70;95.50
31038;DHT22;17702;47.590;7.666;2023-05-07T09:31:07;21.80;95.20
31038;DHT22;17702;47.590;7.666;2023-05-07T09:33:32;21.80;94.20
31038;DHT22;17702;47.590;7.666;2023-05-07T09:35:58;21.70;94.30
31038;DHT22;17702;47.590;7.666;2023-05-07T09:38:23;21.70;94.90
31038;DHT22;17702;47.590;7.666;2023-05-07T09:41:01;21.60;94.90
31038;DHT22;17702;47.590;7.666;2023-05-07T09:43:26;21.50;95.30
31038;DHT22;17702;47.590;7.666;2023-05-07T09:45:57;21.40;96.10
31038;DHT22;17702;47.590;7.666;2023-05-07T09:48:23;21.40;95.90
31038;DHT22;17702;47.590;7.666;2023-05-07T09:50:51;21.40;95.80
31038;DHT22;17702;47.590;7.666;2023-05-07T09:53:18;21.50;95.90
31038;DHT22;17702;47.590;7.666;2023-05-07T09:55:44;21.50;96.10
31038;DHT22;17702;47.590;7.666;2023-05-07T09:58:10;21.60;95.90
31038;DHT22;17702;47.590;7.666;2023-05-07T10:00:37;21.60;96.00
31038;DHT22;17702;47.590;7.666;2023-05-07T10:03:05;21.70;95.00
31038;DHT22;17702;47.590;7.666;2023-05-07T10:05:31;21.60;95.50
31038;DHT22;17702;47.590;7.666;2023-05-07T10:07:57;21.60;95.20
31038;DHT22;17702;47.590;7.666;2023-05-07T10:10:23;21.50;95.70
31038;DHT22;17702;47.590;7.666;2023-05-07T10:12:49;21.50;96.10
31038;DHT22;17702;47.590;7.666;2023-05-07T10:15:15;21.50;96.00
31038;DHT22;17702;47.590;7.666;2023-05-07T10:17:41;21.50;95.90
31038;DHT22;17702;47.590;7.666;2023-05-07T10:20:07;21.60;96.50
31038;DHT22;17702;47.590;7.666;2023-05-07T10:22:51;21.60;95.30
31038;DHT22;17702;47.590;7.666;2023-05-07T10:25:19;21.50;95.70
31038;DHT22;17702;47.590;7.666;2023-05-07T10:27:46;21.40;95.80
31038;DHT22;17702;47.590;7.666;2023-05-07T10:32:48;21.30;97.00
31038;DHT22;17702;47.590;7.666;2023-05-07T10:35:17;21.30;97.30
31038;DHT22;17702;47.590;7.666;2023-05-07T10:37:43;21.20;97.40
31038;DHT22;17702;47.590;7.666;2023-05-07T10:40:09;21.20;96.50
31038;DHT22;17702;47.590;7.666;2023-05-07T10:42:35;21.20;96.20
31038;DHT22;17702;47.590;7.666;2023-05-07T10:45:15;21.20;96.10
31038;DHT22;17702;47.590;7.666;2023-05-07T10:50:26;21.40;97.00
31038;DHT22;17702;47.590;7.666;2023-05-07T10:55:35;21.60;96.20
31038;DHT22;17702;47.590;7.666;2023-05-07T11:00:45;21.90;96.00
31038;DHT22;17702;47.590;7.666;2023-05-07T11:03:10;22.20;94.80
31038;DHT22;17702;47.590;7.666;2023-05-07T11:05:37;22.30;95.70
31038;DHT22;17702;47.590;7.666;2023-05-07T11:08:04;22.50;94.50
31038;DHT22;17702;47.590;7.666;2023-05-07T11:13:15;22.60;93.60
31038;DHT22;17702;47.590;7.666;2023-05-07T11:15:41;22.60;94.40
31038;DHT22;17702;47.590;7.666;2023-05-07T11:18:08;22.60;92.90
31038;DHT22;17702;47.590;7.666;2023-05-07T11:20:50;22.50;94.00
31038;DHT22;17702;47.590;7.666;2023-05-07T11:23:54;22.50;94.40
31038;DHT22;17702;47.590;7.666;2023-05-07T11:26:09;22.50;94.50
31038;DHT22;17702;47.590;7.666;2023-05-07T11:28:39;22.40;95.10
31038;DHT22;17702;47.590;7.666;2023-05-07T11:31:05;22.30;94.80
31038;DHT22;17702;47.590;7.666;2023-05-07T11:33:30;22.20;94.70
31038;DHT22;17702;47.590;7.666;2023-05-07T11:35:56;22.00;95.60
31038;DHT22;17702;47.590;7.666;2023-05-07T11:38:22;21.90;95.60
31038;DHT22;17702;47.590;7.666;2023-05-07T11:40:48;21.80;96.20
31038;DHT22;17702;47.590;7.666;2023-05-07T11:43:14;21.60;96.90
31038;DHT22;17702;47.590;7.666;2023-05-07T11:45:39;21.60;96.00
31038;DHT22;17702;47.590;7.666;2023-05-07T11:48:05;21.50;96.30
31038;DHT22;17702;47.590;7.666;2023-05-07T11:50:30;21.50;97.40
31038;DHT22;17702;47.590;7.666;2023-05-07T11:52:56;21.40;96.70
31038;DHT22;17702;47.590;7.666;2023-05-07T11:55:21;21.30;96.80
31038;DHT22;17702;47.590;7.666;2023-05-07T11:57:50;21.20;97.50
31038;DHT22;17702;47.590;7.666;2023-05-07T12:00:15;21.10;97.40
31038;DHT22;17702;47.590;7.666;2023-05-07T12:02:41;21.00;97.50
31038;DHT22;17702;47.590;7.666;2023-05-07T12:05:07;20.90;98.20
31038;DHT22;17702;47.590;7.666;2023-05-07T12:07:33;20.80;98.50
31038;DHT22;17702;47.590;7.666;2023-05-07T12:09:59;20.70;98.30
31038;DHT22;17702;47.590;7.666;2023-05-07T12:12:29;20.60;98.60
31038;DHT22;17702;47.590;7.666;2023-05-07T12:14:54;20.50;98.60
31038;DHT22;17702;47.590;7.666;2023-05-07T12:17:20;20.40;99.00
31038;DHT22;17702;47.590;7.666;2023-05-07T12:19:46;20.30;99.90
31038;DHT22;17702;47.590;7.666;2023-05-07T12:22:12;20.10;99.90
31038;DHT22;17702;47.590;7.666;2023-05-07T12:24:47;20.00;99.90
31038;DHT22;17702;47.590;7.666;2023-05-07T12:27:14;19.80;99.90
31038;DHT22;17702;47.590;7.666;2023-05-07T12:29:39;19.70;99.90
31038;DHT22;17702;47.590;7.666;2023-05-07T12:32:12;19.50;99.90
31038;DHT22;17702;47.590;7.666;2023-05-07T12:34:38;19.40;99.90
31038;DHT22;17702;47.590;7.666;2023-05-07T12:37:04;19.30;99.90
31038;DHT22;17702;47.590;7.666;2023-05-07T12:39:30;19.10;99.90
31038;DHT22;17702;47.590;7.666;2023-05-07T12:41:56;19.00;99.90
31038;DHT22;17702;47.590;7.666;2023-05-07T12:44:34;18.90;99.90
31038;DHT22;17702;47.590;7.666;2023-05-07T12:47:02;18.80;99.90
31038;DHT22;17702;47.590;7.666;2023-05-07T12:49:28;18.80;99.90
31038;DHT22;17702;47.590;7.666;2023-05-07T12:51:54;18.70;99.90
31038;DHT22;17702;47.590;7.666;2023-05-07T12:54:30;18.60;99.90
31038;DHT22;17702;47.590;7.666;2023-05-07T12:57:02;18.60;99.90
31038;DHT22;17702;47.590;7.666;2023-05-07T12:59:34;18.60;99.90
31038;DHT22;17702;47.590;7.666;2023-05-07T13:02:00;18.60;99.90
31038;DHT22;17702;47.590;7.666;2023-05-07T13:04:26;18.70;99.90
31038;DHT22;17702;47.590;7.666;2023-05-07T13:06:51;18.70;99.90
31038;DHT22;17702;47.590;7.666;2023-05-07T13:09:17;18.70;99.90
31038;DHT22;17702;47.590;7.666;2023-05-07T13:11:42;18.70;99.90
31038;DHT22;17702;47.590;7.666;2023-05-07T13:14:07;18.70;99.90
31038;DHT22;17702;47.590;7.666;2023-05-07T13:16:33;18.70;99.90
31038;DHT22;17702;47.590;7.666;2023-05-07T13:18:59;18.70;99.90
31038;DHT22;17702;47.590;7.666;2023-05-07T13:21:24;18.70;99.90
31038;DHT22;17702;47.590;7.666;2023-05-07T13:23:50;18.70;99.90
31038;DHT22;17702;47.590;7.666;2023-05-07T13:26:16;18.80;99.90
31038;DHT22;17702;47.590;7.666;2023-05-07T13:28:41;18.80;99.90
31038;DHT22;17702;47.590;7.666;2023-05-07T13:31:07;19.00;99.90
31038;DHT22;17702;47.590;7.666;2023-05-07T13:33:32;19.00;99.90
31038;DHT22;17702;47.590;7.666;2023-05-07T13:35:58;19.10;99.90
31038;DHT22;17702;47.590;7.666;2023-05-07T13:38:25;19.30;99.90
31038;DHT22;17702;47.590;7.666;2023-05-07T13:40:51;19.30;99.90
31038;DHT22;17702;47.590;7.666;2023-05-07T13:43:16;19.50;99.90
31038;DHT22;17702;47.590;7.666;2023-05-07T13:45:43;19.80;99.90
31038;DHT22;17702;47.590;7.666;2023-05-07T13:48:09;20.00;99.90
31038;DHT22;17702;47.590;7.666;2023-05-07T13:50:35;20.20;99.90
31038;DHT22;17702;47.590;7.666;2023-05-07T13:53:00;20.50;99.90
31038;DHT22;17702;47.590;7.666;2023-05-07T13:55:28;20.60;99.90
31038;DHT22;17702;47.590;7.666;2023-05-07T13:57:54;20.80;99.90
31038;DHT22;17702;47.590;7.666;2023-05-07T14:00:21;20.90;99.90
31038;DHT22;17702;47.590;7.666;2023-05-07T14:02:46;20.90;99.90
31038;DHT22;17702;47.590;7.666;2023-05-07T14:05:12;20.90;99.90
31038;DHT22;17702;47.590;7.666;2023-05-07T14:07:38;20.90;99.90
31038;DHT22;17702;47.590;7.666;2023-05-07T14:10:04;20.80;99.90
31038;DHT22;17702;47.590;7.666;2023-05-07T14:12:30;20.70;99.90
31038;DHT22;17702;47.590;7.666;2023-05-07T14:14:56;20.70;99.90
31038;DHT22;17702;47.590;7.666;2023-05-07T14:17:22;20.70;99.90
31038;DHT22;17702;47.590;7.666;2023-05-07T14:19:50;20.80;99.90
31038;DHT22;17702;47.590;7.666;2023-05-07T14:22:16;20.90;99.90
31038;DHT22;17702;47.590;7.666;2023-05-07T14:24:41;21.20;99.90
31038;DHT22;17702;47.590;7.666;2023-05-07T14:27:07;21.30;99.90
31038;DHT22;17702;47.590;7.666;2023-05-07T14:29:32;21.40;99.90
31038;DHT22;17702;47.590;7.666;2023-05-07T14:31:58;21.50;99.90
31038;DHT22;17702;47.590;7.666;2023-05-07T14:34:23;21.50;99.90
31038;DHT22;17702;47.590;7.666;2023-05-07T14:36:49;21.50;99.90
31038;DHT22;17702;47.590;7.666;2023-05-07T14:39:14;21.60;99.90
31038;DHT22;17702;47.590;7.666;2023-05-07T14:41:40;21.50;99.90
31038;DHT22;17702;47.590;7.666;2023-05-07T14:44:05;21.50;99.90
31038;DHT22;17702;47.590;7.666;2023-05-07T14:46:31;21.40;99.90
31038;DHT22;17702;47.590;7.666;2023-05-07T14:48:57;21.30;99.90
31038;DHT22;17702;47.590;7.666;2023-05-07T14:51:22;21.20;99.90
31038;DHT22;17702;47.590;7.666;2023-05-07T14:53:49;21.20;99.90
31038;DHT22;17702;47.590;7.666;2023-05-07T14:56:15;21.10;99.90
31038;DHT22;17702;47.590;7.666;2023-05-07T14:58:40;21.10;99.90
31038;DHT22;17702;47.590;7.666;2023-05-07T15:01:06;21.00;99.90
31038;DHT22;17702;47.590;7.666;2023-05-07T15:03:31;21.00;99.90
31038;DHT22;17702;47.590;7.666;2023-05-07T15:05:57;21.00;99.90
31038;DHT22;17702;47.590;7.666;2023-05-07T15:08:22;21.00;99.90
31038;DHT22;17702;47.590;7.666;2023-05-07T15:10:48;21.00;99.90
31038;DHT22;17702;47.590;7.666;2023-05-07T15:13:13;21.00;99.90
31038;DHT22;17702;47.590;7.666;2023-05-07T15:15:39;21.00;99.90
31038;DHT22;17702;47.590;7.666;2023-05-07T15:18:05;20.90;99.90
31038;DHT22;17702;47.590;7.666;2023-05-07T15:20:30;20.90;99.90
31038;DHT22;17702;47.590;7.666;2023-05-07T15:22:56;20.90;99.90
31038;DHT22;17702;47.590;7.666;2023-05-07T15:25:22;20.80;99.90
31038;DHT22;17702;47.590;7.666;2023-05-07T15:27:48;20.80;99.90
31038;DHT22;17702;47.590;7.666;2023-05-07T15:30:13;20.80;99.90
31038;DHT22;17702;47.590;7.666;2023-05-07T15:32:39;20.80;99.90
31038;DHT22;17702;47.590;7.666;2023-05-07T15:35:05;20.70;99.90
31038;DHT22;17702;47.590;7.666;2023-05-07T15:37:31;20.70;99.90